createdAt,value
2018-06-21T00:00:57.046Z,83.73
2018-06-21T00:01:57.307Z,83.15
2018-06-21T00:02:57.027Z,83.25
2018-06-21T00:03:57.017Z,83.63
2018-06-21T00:04:57.008Z,83.34
2018-06-21T00:05:57.263Z,82.86
2018-06-21T00:06:56.986Z,83.06
2018-06-21T00:07:57.026Z,82.57
2018-06-21T00:08:57.228Z,82.76
2018-06-21T00:09:57.223Z,82.76
2018-06-21T00:10:56.944Z,82.29
2018-06-21T00:11:56.936Z,81.81
2018-06-21T00:12:57.187Z,82.09
2018-06-21T00:13:57.191Z,82.38
2018-06-21T00:14:56.908Z,82.09
2018-06-21T00:15:57.163Z,82.19
2018-06-21T00:16:57.153Z,81.9
2018-06-21T00:17:57.144Z,81.32
2018-06-21T00:18:57.126Z,81.52
2018-06-21T00:19:57.116Z,81.81
2018-06-21T00:20:57.109Z,81.13
2018-06-21T00:21:56.836Z,80.65
2018-06-21T00:22:57.096Z,80.75
2018-06-21T00:23:56.815Z,81.23
2018-06-21T00:24:56.803Z,80.99
2018-06-21T00:25:57.057Z,81.19
2018-06-21T00:26:56.786Z,81.32
2018-06-21T00:27:56.778Z,81.32
2018-06-21T00:28:57.056Z,82.43
2018-06-21T00:29:57.013Z,81.19
2018-06-21T00:30:57.002Z,81.19
2018-06-21T00:31:56.998Z,80.71
2018-06-21T00:32:56.722Z,80.9
2018-06-21T00:33:56.988Z,80.04
2018-06-21T00:34:56.965Z,80.51
2018-06-21T00:35:56.951Z,80.61
2018-06-21T00:36:56.942Z,80.71
2018-06-21T00:37:56.664Z,79.75
2018-06-21T00:38:56.924Z,80.61
2018-06-21T00:39:56.908Z,80.51
2018-06-21T00:40:56.636Z,80.61
2018-06-21T00:41:56.896Z,80.8
2018-06-21T00:42:56.882Z,80.9
2018-06-21T00:43:56.608Z,81.57
2018-06-21T00:44:56.864Z,80.9
2018-06-21T00:45:56.584Z,79.17
2018-06-21T00:46:56.835Z,80.61
2018-06-21T00:47:56.828Z,80.42
2018-06-21T00:48:56.816Z,80.61
2018-06-21T00:49:56.555Z,80.61
2018-06-21T00:50:56.528Z,80.51
2018-06-21T00:51:56.525Z,80.8
2018-06-21T00:52:56.770Z,79.36
2018-06-21T00:53:56.500Z,78.69
2018-06-21T00:54:56.753Z,78.78
2018-06-21T00:55:56.742Z,79.07
2018-06-21T00:56:56.730Z,79.55
2018-06-21T00:57:56.724Z,79.46
2018-06-21T00:58:56.706Z,78.59
2018-06-21T00:59:56.439Z,78.88
2018-06-21T01:00:56.693Z,78.78
2018-06-21T01:01:56.690Z,76.96
2018-06-21T01:02:56.405Z,78.11
2018-06-21T01:03:56.652Z,78.4
2018-06-21T01:04:56.648Z,76.67
2018-06-21T01:05:56.635Z,77.73
2018-06-21T01:06:56.623Z,77.4
2018-06-21T01:07:56.613Z,77.69
2018-06-21T01:08:56.338Z,77.01
2018-06-21T01:09:56.330Z,76.82
2018-06-21T01:10:56.581Z,76.44
2018-06-21T01:11:56.574Z,75.96
2018-06-21T01:12:56.559Z,76.25
2018-06-21T01:13:56.291Z,76.64
2018-06-21T01:14:56.545Z,76.54
2018-06-21T01:15:56.464Z,75.77
2018-06-21T01:16:56.564Z,75.38
2018-06-21T01:17:56.239Z,75.77
2018-06-21T01:18:56.502Z,75.48
2018-06-21T01:19:56.487Z,74.23
2018-06-21T01:20:56.473Z,74.71
2018-06-21T01:21:56.200Z,75
2018-06-21T01:22:56.453Z,74.52
2018-06-21T01:23:56.492Z,74.23
2018-06-21T01:24:56.440Z,75.2
2018-06-21T01:25:56.153Z,74.62
2018-06-21T01:26:56.407Z,74.9
2018-06-21T01:27:56.399Z,74.62
2018-06-21T01:28:56.386Z,74.62
2018-06-21T01:29:56.125Z,74.71
2018-06-21T01:30:56.363Z,74.43
2018-06-21T01:31:56.094Z,74.04
2018-06-21T01:32:56.349Z,74.04
2018-06-21T01:33:56.333Z,74.52
2018-06-21T01:34:56.320Z,74.23
2018-06-21T01:35:56.312Z,72.89
2018-06-21T01:36:56.296Z,73.18
2018-06-21T01:37:56.285Z,73.27
2018-06-21T01:38:56.277Z,73.08
2018-06-21T01:39:56.266Z,73.08
2018-06-21T01:40:55.990Z,72.99
2018-06-21T01:41:56.243Z,73.18
2018-06-21T01:42:56.230Z,73.56
2018-06-21T01:43:56.217Z,73.37
2018-06-21T01:44:56.215Z,73.08
2018-06-21T01:45:56.196Z,72.79
2018-06-21T01:46:56.187Z,72.99
2018-06-21T01:47:56.181Z,73.66
2018-06-21T01:48:55.899Z,73.08
2018-06-21T01:49:56.155Z,73.08
2018-06-21T01:50:56.144Z,71.35
2018-06-21T01:51:56.190Z,71.8
2018-06-21T01:52:56.120Z,71.8
2018-06-21T01:53:56.110Z,71.98
2018-06-21T01:54:56.096Z,71.8
2018-06-21T01:55:56.087Z,71.64
2018-06-21T01:56:55.810Z,71.12
2018-06-21T01:57:55.800Z,70.55
2018-06-21T01:58:55.792Z,70.74
2018-06-21T01:59:56.040Z,70.55
2018-06-21T02:00:56.036Z,70.17
2018-06-21T02:01:55.757Z,70.93
2018-06-21T02:02:55.743Z,69.87
2018-06-21T02:03:55.735Z,70.36
2018-06-21T02:04:55.983Z,70.64
2018-06-21T02:05:55.978Z,70.55
2018-06-21T02:06:55.964Z,70.93
2018-06-21T02:07:55.962Z,69.68
2018-06-21T02:08:55.678Z,69.11
2018-06-21T02:09:55.933Z,68.91
2018-06-21T02:10:55.927Z,68.82
2018-06-21T02:11:55.907Z,68.34
2018-06-21T02:12:55.897Z,68.05
2018-06-21T02:13:55.887Z,67.57
2018-06-21T02:14:55.610Z,66.9
2018-06-21T02:15:55.603Z,67.09
2018-06-21T02:16:55.585Z,66.61
2018-06-21T02:17:55.841Z,65.84
2018-06-21T02:18:55.564Z,66.03
2018-06-21T02:19:55.556Z,65.46
2018-06-21T02:20:55.819Z,66.03
2018-06-21T02:21:55.534Z,66.61
2018-06-21T02:22:55.521Z,66.33
2018-06-21T02:23:55.772Z,65.84
2018-06-21T02:24:55.762Z,66.03
2018-06-21T02:25:55.484Z,62.19
2018-06-21T02:26:55.737Z,63.73
2018-06-21T02:27:55.465Z,64.69
2018-06-21T02:28:55.455Z,65.08
2018-06-21T02:29:55.711Z,65.46
2018-06-21T02:30:55.697Z,65.94
2018-06-21T02:31:55.688Z,65.94
2018-06-21T02:32:55.458Z,64.98
2018-06-21T02:33:55.662Z,64.59
2018-06-21T02:34:55.389Z,64.98
2018-06-21T02:35:55.375Z,63.45
2018-06-21T02:36:55.628Z,62.39
2018-06-21T02:37:55.624Z,62.48
2018-06-21T02:38:55.607Z,60.95
2018-06-21T02:39:55.597Z,62.39
2018-06-21T02:40:55.618Z,61.91
2018-06-21T02:41:55.306Z,60.47
2018-06-21T02:42:55.564Z,60.47
2018-06-21T02:43:55.547Z,60.66
2018-06-21T02:44:55.592Z,60.18
2018-06-21T02:45:55.275Z,60.28
2018-06-21T02:46:55.516Z,60.75
2018-06-21T02:47:55.506Z,60.95
2018-06-21T02:48:55.493Z,60.28
2018-06-21T02:49:55.222Z,60.66
2018-06-21T02:50:55.214Z,60.47
2018-06-21T02:51:55.199Z,60.75
2018-06-21T02:52:55.460Z,61.65
2018-06-21T02:53:55.438Z,61.46
2018-06-21T02:54:55.166Z,61.75
2018-06-21T02:55:55.151Z,62.32
2018-06-21T02:56:55.140Z,62.23
2018-06-21T02:57:55.395Z,62.32
2018-06-21T02:58:55.378Z,62.99
2018-06-21T02:59:55.106Z,63.28
2018-06-21T03:00:55.099Z,63.57
2018-06-21T03:01:55.348Z,63.67
2018-06-21T03:02:55.343Z,63.09
2018-06-21T03:03:55.448Z,62.99
2018-06-21T03:04:55.051Z,63.48
2018-06-21T03:05:55.042Z,62.32
2018-06-21T03:06:55.029Z,63.28
2018-06-21T03:07:55.295Z,63.28
2018-06-21T03:08:55.275Z,63.02
2018-06-21T03:09:55.260Z,63.89
2018-06-21T03:10:54.984Z,62.9
2018-06-21T03:11:54.975Z,62.84
2018-06-21T03:12:55.231Z,63.51
2018-06-21T03:13:54.950Z,63.28
2018-06-21T03:14:54.938Z,62.99
2018-06-21T03:15:55.395Z,63.57
2018-06-21T03:16:54.918Z,63.76
2018-06-21T03:17:54.908Z,63.19
2018-06-21T03:18:55.166Z,62.23
2018-06-21T03:19:55.147Z,61.27
2018-06-21T03:20:55.137Z,61.08
2018-06-21T03:21:54.897Z,60.11
2018-06-21T03:22:54.857Z,60.78
2018-06-21T03:23:55.105Z,61.46
2018-06-21T03:24:55.091Z,61.08
2018-06-21T03:25:55.083Z,60.4
2018-06-21T03:26:55.074Z,61.46
2018-06-21T03:27:54.797Z,60.88
2018-06-21T03:28:55.052Z,60.31
2018-06-21T03:29:54.773Z,60.31
2018-06-21T03:30:54.776Z,59.92
2018-06-21T03:31:55.018Z,59.92
2018-06-21T03:32:55.007Z,60.02
2018-06-21T03:33:54.728Z,59.54
2018-06-21T03:34:54.742Z,59.16
2018-06-21T03:35:54.972Z,59.83
2018-06-21T03:36:54.972Z,58.77
2018-06-21T03:37:54.684Z,58.39
2018-06-21T03:38:54.935Z,58
2018-06-21T03:39:54.931Z,58
2018-06-21T03:40:54.920Z,58
2018-06-21T03:41:54.644Z,58.39
2018-06-21T03:42:54.892Z,58.39
2018-06-21T03:43:54.881Z,58.29
2018-06-21T03:44:54.873Z,58
2018-06-21T03:45:54.594Z,57.81
2018-06-21T03:46:54.590Z,58.2
2018-06-21T03:47:54.840Z,57.9
2018-06-21T03:48:54.565Z,57.14
2018-06-21T03:49:54.815Z,57.52
2018-06-21T03:50:54.807Z,57.33
2018-06-21T03:51:54.791Z,57.01
2018-06-21T03:52:54.519Z,56.82
2018-06-21T03:53:54.506Z,56.56
2018-06-21T03:54:54.499Z,56.76
2018-06-21T03:55:54.748Z,56.85
2018-06-21T03:56:54.736Z,57.23
2018-06-21T03:57:54.461Z,57.23
2018-06-21T03:58:54.720Z,56.15
2018-06-21T03:59:54.438Z,56.08
2018-06-21T04:00:54.692Z,55.02
2018-06-21T04:01:54.414Z,55.12
2018-06-21T04:02:54.404Z,55.79
2018-06-21T04:03:54.693Z,55.51
2018-06-21T04:04:54.644Z,55.51
2018-06-21T04:05:54.419Z,55.02
2018-06-21T04:06:54.358Z,54.74
2018-06-21T04:07:54.344Z,54.74
2018-06-21T04:08:54.339Z,55.32
2018-06-21T04:09:54.591Z,54.06
2018-06-21T04:10:54.579Z,54.25
2018-06-21T04:11:54.306Z,52.91
2018-06-21T04:12:54.294Z,53.49
2018-06-21T04:13:54.541Z,53.11
2018-06-21T04:14:54.530Z,54.25
2018-06-21T04:15:54.518Z,53.39
2018-06-21T04:16:54.507Z,54.35
2018-06-21T04:17:54.505Z,53.2
2018-06-21T04:18:54.497Z,53.3
2018-06-21T04:19:54.210Z,53.3
2018-06-21T04:20:54.202Z,53.3
2018-06-21T04:21:54.188Z,53.11
2018-06-21T04:22:54.438Z,53.13
2018-06-21T04:23:54.167Z,53.11
2018-06-21T04:24:54.419Z,53.2
2018-06-21T04:25:54.148Z,53.49
2018-06-21T04:26:54.401Z,53.13
2018-06-21T04:27:54.390Z,52.36
2018-06-21T04:28:54.381Z,52.55
2018-06-21T04:29:54.366Z,52.62
2018-06-21T04:30:54.087Z,52.84
2018-06-21T04:31:54.081Z,52.08
2018-06-21T04:32:54.334Z,52.26
2018-06-21T04:33:54.325Z,51.88
2018-06-21T04:34:54.046Z,52.08
2018-06-21T04:35:54.299Z,51.59
2018-06-21T04:36:54.022Z,52.26
2018-06-21T04:37:54.390Z,52.08
2018-06-21T04:38:54.269Z,52.75
2018-06-21T04:39:54.252Z,52.65
2018-06-21T04:40:54.244Z,52.26
2018-06-21T04:41:54.231Z,53.13
2018-06-21T04:42:53.962Z,52.08
2018-06-21T04:43:53.949Z,53.23
2018-06-21T04:44:53.932Z,53.8
2018-06-21T04:45:53.984Z,54.19
2018-06-21T04:46:53.916Z,54.31
2018-06-21T04:47:53.902Z,54.41
2018-06-21T04:48:54.152Z,54.6
2018-06-21T04:49:54.147Z,55.08
2018-06-21T04:50:54.138Z,55.18
2018-06-21T04:51:53.861Z,54.99
2018-06-21T04:52:54.120Z,55.37
2018-06-21T04:53:54.101Z,55.27
2018-06-21T04:54:54.098Z,54.99
2018-06-21T04:55:54.081Z,55.08
2018-06-21T04:56:54.073Z,55.46
2018-06-21T04:57:53.797Z,54.89
2018-06-21T04:58:53.785Z,55.37
2018-06-21T04:59:53.772Z,55.18
2018-06-21T05:00:54.024Z,54.69
2018-06-21T05:01:54.016Z,55.46
2018-06-21T05:02:54.006Z,55.46
2018-06-21T05:03:53.996Z,56.14
2018-06-21T05:04:53.726Z,56.23
2018-06-21T05:05:53.711Z,55.85
2018-06-21T05:06:53.958Z,55.46
2018-06-21T05:07:53.963Z,55.76
2018-06-21T05:08:53.937Z,55.85
2018-06-21T05:09:53.661Z,56.33
2018-06-21T05:10:53.657Z,55.66
2018-06-21T05:11:53.907Z,55.85
2018-06-21T05:12:53.895Z,55.18
2018-06-21T05:13:53.888Z,55.66
2018-06-21T05:14:53.876Z,55.08
2018-06-21T05:15:53.605Z,55.08
2018-06-21T05:16:53.855Z,54.5
2018-06-21T05:17:53.854Z,53.64
2018-06-21T05:18:53.572Z,54.31
2018-06-21T05:19:53.830Z,54.41
2018-06-21T05:20:53.816Z,54.02
2018-06-21T05:21:53.538Z,53.16
2018-06-21T05:22:53.793Z,53.54
2018-06-21T05:23:53.784Z,53.45
2018-06-21T05:24:53.767Z,53.25
2018-06-21T05:25:53.756Z,52.46
2018-06-21T05:26:53.485Z,52.75
2018-06-21T05:27:53.472Z,51.5
2018-06-21T05:28:53.463Z,51.02
2018-06-21T05:29:53.718Z,51.21
2018-06-21T05:30:53.708Z,51.02
2018-06-21T05:31:53.692Z,51.02
2018-06-21T05:32:53.680Z,49.87
2018-06-21T05:33:53.675Z,49.57
2018-06-21T05:34:53.666Z,48.43
2018-06-21T05:35:53.649Z,46.5
2018-06-21T05:36:53.379Z,46.31
2018-06-21T05:37:53.366Z,44.68
2018-06-21T05:38:53.353Z,43.71
2018-06-21T05:39:53.344Z,40.16
2018-06-21T05:40:53.599Z,39.49
2018-06-21T05:41:53.589Z,38.43
2018-06-21T05:42:53.573Z,37.95
2018-06-21T05:43:53.298Z,37.85
2018-06-21T05:44:53.288Z,36.8
2018-06-21T05:45:53.544Z,36.22
2018-06-21T05:46:53.529Z,35.45
2018-06-21T05:47:53.519Z,34.3
2018-06-21T05:48:53.506Z,32.26
2018-06-21T05:49:53.238Z,32.26
2018-06-21T05:50:53.488Z,31.21
2018-06-21T05:51:53.476Z,30.92
2018-06-21T05:52:53.200Z,29.96
2018-06-21T05:53:53.458Z,30.15
2018-06-21T05:54:53.180Z,28.71
2018-06-21T05:55:53.168Z,28.71
2018-06-21T05:56:53.428Z,28.81
2018-06-21T05:57:53.141Z,28.52
2018-06-21T05:58:53.399Z,28.91
2018-06-21T05:59:53.386Z,28.52
2018-06-21T06:00:53.376Z,28.42
2018-06-21T06:01:53.441Z,28.23
2018-06-21T06:02:53.351Z,27.75
2018-06-21T06:03:53.074Z,27.84
2018-06-21T06:04:53.065Z,27.55
2018-06-21T06:05:53.316Z,27.06
2018-06-21T06:06:53.310Z,27.06
2018-06-21T06:07:53.293Z,26.87
2018-06-21T06:08:53.282Z,26.68
2018-06-21T06:09:53.269Z,26.78
2018-06-21T06:10:53.003Z,26.87
2018-06-21T06:11:52.986Z,26.59
2018-06-21T06:12:52.975Z,26.49
2018-06-21T06:13:53.225Z,26.39
2018-06-21T06:14:52.952Z,26.3
2018-06-21T06:15:52.940Z,26.2
2018-06-21T06:16:53.194Z,26.2
2018-06-21T06:17:53.177Z,25.92
2018-06-21T06:18:52.906Z,25.24
2018-06-21T06:19:53.154Z,24.95
2018-06-21T06:20:53.150Z,24.66
2018-06-21T06:21:53.132Z,24.76
2018-06-21T06:22:53.124Z,24.76
2018-06-21T06:23:53.118Z,25.05
2018-06-21T06:24:52.833Z,25.53
2018-06-21T06:25:53.088Z,26.3
2018-06-21T06:26:53.073Z,26.38
2018-06-21T06:27:53.069Z,26.86
2018-06-21T06:28:53.053Z,26.48
2018-06-21T06:29:53.040Z,26.67
2018-06-21T06:30:52.763Z,26.76
2018-06-21T06:31:53.021Z,26.48
2018-06-21T06:32:53.005Z,26.19
2018-06-21T06:33:52.725Z,26.48
2018-06-21T06:34:52.715Z,26.19
2018-06-21T06:35:52.708Z,26.19
2018-06-21T06:36:52.694Z,26.09
2018-06-21T06:37:52.681Z,26.38
2018-06-21T06:38:52.930Z,26.56
2018-06-21T06:39:52.657Z,26.76
2018-06-21T06:40:52.911Z,26.48
2018-06-21T06:41:52.956Z,26.76
2018-06-21T06:42:52.884Z,26.65
2018-06-21T06:43:52.608Z,26.56
2018-06-21T06:44:52.597Z,26.65
2018-06-21T06:45:52.588Z,26.65
2018-06-21T06:46:52.573Z,26.65
2018-06-21T06:47:52.825Z,26.37
2018-06-21T06:48:52.823Z,26.94
2018-06-21T06:49:52.539Z,26.65
2018-06-21T06:50:52.794Z,26.65
2018-06-21T06:51:52.778Z,26.75
2018-06-21T06:52:52.768Z,26.75
2018-06-21T06:53:52.751Z,26.27
2018-06-21T06:54:52.925Z,26.75
2018-06-21T06:55:52.730Z,26.56
2018-06-21T06:56:52.464Z,26.46
2018-06-21T06:57:52.444Z,26.65
2018-06-21T06:58:52.706Z,26.56
2018-06-21T06:59:52.739Z,26.18
2018-06-21T07:00:52.417Z,26.08
2018-06-21T07:01:52.402Z,26.27
2018-06-21T07:02:52.389Z,26.08
2018-06-21T07:03:52.638Z,25.98
2018-06-21T07:04:52.375Z,26.09
2018-06-21T07:05:52.347Z,26.09
2018-06-21T07:06:52.596Z,26.19
2018-06-21T07:07:52.591Z,25.99
2018-06-21T07:08:52.577Z,26.28
2018-06-21T07:09:52.564Z,26.19
2018-06-21T07:10:52.559Z,26.67
2018-06-21T07:11:52.552Z,26.76
2018-06-21T07:12:52.263Z,26.67
2018-06-21T07:13:52.251Z,26.95
2018-06-21T07:14:52.505Z,27.53
2018-06-21T07:15:52.489Z,27.15
2018-06-21T07:16:52.420Z,26.76
2018-06-21T07:17:52.204Z,26.67
2018-06-21T07:18:52.196Z,27.15
2018-06-21T07:19:52.455Z,27.72
2018-06-21T07:20:52.171Z,28.49
2018-06-21T07:21:52.159Z,28.11
2018-06-21T07:22:52.412Z,28.7
2018-06-21T07:23:52.398Z,28.41
2018-06-21T07:24:52.129Z,28.03
2018-06-21T07:25:52.381Z,28.41
2018-06-21T07:26:52.108Z,30.05
2018-06-21T07:27:52.354Z,31.02
2018-06-21T07:28:52.347Z,31.49
2018-06-21T07:29:52.432Z,32.55
2018-06-21T07:30:52.325Z,32.55
2018-06-21T07:31:52.072Z,32.55
2018-06-21T07:32:52.309Z,35.91
2018-06-21T07:33:52.299Z,37.66
2018-06-21T07:34:52.280Z,36.7
2018-06-21T07:35:52.269Z,36.58
2018-06-21T07:36:52.259Z,34.95
2018-06-21T07:37:51.985Z,34.39
2018-06-21T07:38:52.040Z,34.3
2018-06-21T07:39:52.232Z,36.7
2018-06-21T07:40:52.213Z,41.89
2018-06-21T07:41:52.211Z,43.23
2018-06-21T07:42:52.195Z,40.83
2018-06-21T07:43:52.186Z,43.23
2018-06-21T07:44:51.913Z,41.89
2018-06-21T07:45:52.172Z,45.37
2018-06-21T07:46:51.949Z,46.91
2018-06-21T07:47:52.198Z,44.89
2018-06-21T07:48:51.873Z,48.35
2018-06-21T07:49:51.868Z,53.35
2018-06-21T07:50:51.852Z,49.6
2018-06-21T07:51:51.847Z,53.74
2018-06-21T07:52:52.104Z,50.56
2018-06-21T07:53:52.234Z,48.54
2018-06-21T07:54:52.080Z,49.22
2018-06-21T07:55:51.809Z,50.92
2018-06-21T07:56:51.796Z,50.54
2018-06-21T07:57:51.786Z,47.36
2018-06-21T07:58:52.043Z,46.41
2018-06-21T07:59:51.769Z,48.71
2018-06-21T08:00:51.762Z,45.25
2018-06-21T08:01:52.017Z,46.31
2018-06-21T08:02:52.007Z,44.46
2018-06-21T08:03:52.001Z,48.88
2018-06-21T08:04:51.981Z,46.28
2018-06-21T08:05:51.977Z,55.6
2018-06-21T08:06:51.964Z,60.38
2018-06-21T08:07:51.692Z,60.08
2018-06-21T08:08:51.681Z,60.44
2018-06-21T08:09:51.669Z,60.82
2018-06-21T08:10:51.656Z,56.6
2018-06-21T08:11:51.912Z,59.86
2018-06-21T08:12:51.642Z,62.26
2018-06-21T08:13:51.893Z,60.63
2018-06-21T08:14:51.880Z,60.53
2018-06-21T08:15:51.905Z,63.92
2018-06-21T08:16:51.604Z,60.85
2018-06-21T08:17:51.845Z,59.03
2018-06-21T08:18:51.837Z,62.39
2018-06-21T08:19:51.561Z,62.96
2018-06-21T08:20:51.817Z,63.16
2018-06-21T08:21:51.808Z,62.48
2018-06-21T08:22:51.538Z,70.45
2018-06-21T08:23:51.521Z,67.57
2018-06-21T08:24:51.521Z,70.87
2018-06-21T08:25:51.502Z,70.1
2018-06-21T08:26:51.587Z,72.06
2018-06-21T08:27:51.483Z,71.42
2018-06-21T08:28:51.741Z,76.81
2018-06-21T08:29:51.733Z,76.46
2018-06-21T08:30:51.718Z,77.75
2018-06-21T08:31:51.444Z,78.09
2018-06-21T08:32:51.702Z,78.28
2018-06-21T08:33:51.693Z,85.46
2018-06-21T08:34:51.689Z,83.73
2018-06-21T08:35:51.676Z,83.63
2018-06-21T08:36:51.672Z,81.27
2018-06-21T08:37:51.395Z,79.25
2018-06-21T08:38:51.782Z,82.04
2018-06-21T08:39:51.652Z,81.32
2018-06-21T08:40:51.637Z,83.09
2018-06-21T08:41:51.631Z,74.3
2018-06-21T08:42:51.353Z,79.79
2018-06-21T08:43:51.613Z,81.17
2018-06-21T08:44:51.607Z,78.44
2018-06-21T08:45:51.697Z,80.07
2018-06-21T08:46:51.584Z,85.94
2018-06-21T08:47:51.314Z,86.22
2018-06-21T08:48:51.572Z,88.77
2018-06-21T08:49:51.564Z,87.09
2018-06-21T08:50:51.291Z,93.73
2018-06-21T08:51:51.285Z,88
2018-06-21T08:52:51.545Z,87.48
2018-06-21T08:53:51.545Z,88.92
2018-06-21T08:54:51.530Z,84.21
2018-06-21T08:55:51.513Z,94.21
2018-06-21T08:56:51.505Z,90.06
2018-06-21T08:57:51.501Z,95.36
2018-06-21T08:58:51.492Z,93.43
2018-06-21T08:59:51.220Z,93
2018-06-21T09:00:51.478Z,89.15
2018-06-21T09:01:51.481Z,87.86
2018-06-21T09:02:51.463Z,90.94
2018-06-21T09:03:51.650Z,89.4
2018-06-21T09:04:51.186Z,92.57
2018-06-21T09:05:51.454Z,95.26
2018-06-21T09:06:51.436Z,92.67
2018-06-21T09:07:51.425Z,98.82
2018-06-21T09:08:51.417Z,97.81
2018-06-21T09:09:51.410Z,96.08
2018-06-21T09:10:51.404Z,99.99
2018-06-21T09:11:51.402Z,99.99
2018-06-21T09:12:51.124Z,98.72
2018-06-21T09:13:51.119Z,93.34
2018-06-21T09:14:51.105Z,92.09
2018-06-21T09:15:51.673Z,90.55
2018-06-21T09:16:51.563Z,97.57
2018-06-21T09:17:51.353Z,99.99
2018-06-21T09:18:51.081Z,99.99
2018-06-21T09:19:51.335Z,99.99
2018-06-21T09:20:51.322Z,99.99
2018-06-21T09:21:51.048Z,99.99
2018-06-21T09:22:51.311Z,99.99
2018-06-21T09:23:51.034Z,99.99
2018-06-21T09:24:51.292Z,99.99
2018-06-21T09:25:51.016Z,99.99
2018-06-21T09:26:51.277Z,99.99
2018-06-21T09:27:51.265Z,99.99
2018-06-21T09:28:51.261Z,99.99
2018-06-21T09:29:51.038Z,99.99
2018-06-21T09:30:51.246Z,99.99
2018-06-21T09:31:51.241Z,99.99
2018-06-21T09:32:51.231Z,99.99
2018-06-21T09:33:50.965Z,99.99
2018-06-21T09:34:51.003Z,99.99
2018-06-21T09:35:50.954Z,99.99
2018-06-21T09:36:50.941Z,99.99
2018-06-21T09:37:50.966Z,99.99
2018-06-21T09:38:51.191Z,99.99
2018-06-21T09:39:51.299Z,99.99
2018-06-21T09:40:50.918Z,99.99
2018-06-21T09:41:51.217Z,99.99
2018-06-21T09:42:51.174Z,99.99
2018-06-21T09:44:06.112Z,99.99
2018-06-21T09:44:50.884Z,99.99
2018-06-21T09:45:50.878Z,99.99
2018-06-21T09:46:51.135Z,99.99
2018-06-21T09:47:50.864Z,99.99
2018-06-21T09:48:51.116Z,99.99
2018-06-21T09:49:51.109Z,99.99
2018-06-21T09:50:50.841Z,99.99
2018-06-21T09:51:50.842Z,99.99
2018-06-21T09:52:51.093Z,99.99
2018-06-21T09:53:50.816Z,99.99
2018-06-21T09:54:51.077Z,99.99
2018-06-21T09:55:51.056Z,99.99
2018-06-21T09:56:51.051Z,99.99
2018-06-21T09:57:51.249Z,99.99
2018-06-21T09:58:51.032Z,99.99
2018-06-21T09:59:51.022Z,99.99
2018-06-21T10:00:50.757Z,99.99
2018-06-21T10:01:50.737Z,99.99
2018-06-21T10:02:50.992Z,99.99
2018-06-21T10:03:50.989Z,99.99
2018-06-21T10:04:51.031Z,99.99
2018-06-21T10:05:50.699Z,99.99
2018-06-21T10:06:50.967Z,99.99
2018-06-21T10:07:50.953Z,99.99
2018-06-21T10:08:50.944Z,99.99
2018-06-21T10:09:50.670Z,99.99
2018-06-21T10:10:50.928Z,99.99
2018-06-21T10:11:50.651Z,99.99
2018-06-21T10:12:50.909Z,99.99
2018-06-21T10:13:50.911Z,99.26
2018-06-21T10:14:50.908Z,99.99
2018-06-21T10:15:51.054Z,99.99
2018-06-21T10:16:50.892Z,99.99
2018-06-21T10:17:50.884Z,99.99
2018-06-21T10:18:50.888Z,99.99
2018-06-21T10:19:50.675Z,99.99
2018-06-21T10:20:50.868Z,99.99
2018-06-21T10:21:50.869Z,99.99
2018-06-21T10:22:50.594Z,99.99
2018-06-21T10:23:50.853Z,99.99
2018-06-21T10:24:50.843Z,99.99
2018-06-21T10:25:50.845Z,99.99
2018-06-21T10:26:50.841Z,99.99
2018-06-21T10:27:50.567Z,99.99
2018-06-21T10:28:50.825Z,99.99
2018-06-21T10:29:50.872Z,99.99
2018-06-21T10:30:50.552Z,99.99
2018-06-21T10:31:50.805Z,99.99
2018-06-21T10:32:50.802Z,99.99
2018-06-21T10:33:50.795Z,98.68
2018-06-21T10:34:50.786Z,91.51
2018-06-21T10:35:50.777Z,88.61
2018-06-21T10:36:50.510Z,84.36
2018-06-21T10:37:50.770Z,81.6
2018-06-21T10:38:50.498Z,77.98
2018-06-21T10:39:50.500Z,76.63
2018-06-21T10:40:50.755Z,74.44
2018-06-21T10:41:50.751Z,73.77
2018-06-21T10:42:50.749Z,73.9
2018-06-21T10:43:50.750Z,73.42
2018-06-21T10:44:50.740Z,78.89
2018-06-21T10:45:50.477Z,77.11
2018-06-21T10:46:50.737Z,77.33
2018-06-21T10:47:50.732Z,76.42
2018-06-21T10:48:50.731Z,76.57
2018-06-21T10:49:50.723Z,75.38
2018-06-21T10:50:50.719Z,75.76
2018-06-21T10:51:50.454Z,76.59
2018-06-21T10:52:50.718Z,77.01
2018-06-21T10:53:50.443Z,75.84
2018-06-21T10:54:50.704Z,75.49
2018-06-21T10:55:50.699Z,72.67
2018-06-21T10:56:50.695Z,69.04
2018-06-21T10:57:50.692Z,70.04
2018-06-21T10:58:50.425Z,65.72
2018-06-21T10:59:50.686Z,66.11
2018-06-21T11:00:50.697Z,66.01
2018-06-21T11:01:50.431Z,64.92
2018-06-21T11:02:50.686Z,63.66
2018-06-21T11:03:50.419Z,63.46
2018-06-21T11:04:50.682Z,65.01
2018-06-21T11:05:50.678Z,64.11
2018-06-21T11:06:50.421Z,65.3
2018-06-21T11:07:50.678Z,69.1
2018-06-21T11:08:50.685Z,70.22
2018-06-21T11:09:50.413Z,71.34
2018-06-21T11:10:50.678Z,71.25
2018-06-21T11:11:50.679Z,72.89
2018-06-21T11:12:50.675Z,70.26
2018-06-21T11:13:50.679Z,64.92
2018-06-21T11:14:50.853Z,64.34
2018-06-21T11:15:50.666Z,65.01
2018-06-21T11:16:50.905Z,62.82
2018-06-21T11:17:50.403Z,62.79
2018-06-21T11:18:50.398Z,62.47
2018-06-21T11:19:50.661Z,61.41
2018-06-21T11:20:50.402Z,63.4
2018-06-21T11:21:50.664Z,64.21
2018-06-21T11:22:50.658Z,64.66
2018-06-21T11:23:50.657Z,66.04
2018-06-21T11:24:50.392Z,66.42
2018-06-21T11:25:50.655Z,64.53
2018-06-21T11:26:50.649Z,63.18
2018-06-21T11:27:50.770Z,64.05
2018-06-21T11:28:50.647Z,64.66
2018-06-21T11:29:50.640Z,62.09
2018-06-21T11:30:50.644Z,61.19
2018-06-21T11:31:50.373Z,60.8
2018-06-21T11:32:50.634Z,60.31
2018-06-21T11:33:50.369Z,61.28
2018-06-21T11:34:50.627Z,61.6
2018-06-21T11:35:50.628Z,61.22
2018-06-21T11:36:50.365Z,60.67
2018-06-21T11:37:50.624Z,59.51
2018-06-21T11:38:50.627Z,59.44
2018-06-21T11:39:50.622Z,59.56
2018-06-21T11:40:50.619Z,60.75
2018-06-21T11:41:50.626Z,61.92
2018-06-21T11:42:50.627Z,60.17
2018-06-21T11:43:50.621Z,58.49
2018-06-21T11:44:50.360Z,58.01
2018-06-21T11:45:50.619Z,59.66
2018-06-21T11:46:50.843Z,57.45
2018-06-21T11:47:50.627Z,58.39
2018-06-21T11:48:50.626Z,56.24
2018-06-21T11:49:50.625Z,58.75
2018-06-21T11:50:50.631Z,57.33
2018-06-21T11:51:50.626Z,54.06
2018-06-21T11:52:50.633Z,53.87
2018-06-21T11:53:50.369Z,53.67
2018-06-21T11:54:50.636Z,53.45
2018-06-21T11:55:50.372Z,53.33
2018-06-21T11:56:50.637Z,54.57
2018-06-21T11:57:50.376Z,55.6
2018-06-21T11:58:50.373Z,55.34
2018-06-21T11:59:50.640Z,56.22
2018-06-21T12:00:50.380Z,58.45
2018-06-21T12:01:50.778Z,59.28
2018-06-21T12:02:50.376Z,58.06
2018-06-21T12:03:50.640Z,58.77
2018-06-21T12:04:50.379Z,60.03
2018-06-21T12:05:50.673Z,60.03
2018-06-21T12:06:50.379Z,60.41
2018-06-21T12:07:50.641Z,60.35
2018-06-21T12:08:50.817Z,59.25
2018-06-21T12:09:50.640Z,55.99
2018-06-21T12:10:50.374Z,53.41
2018-06-21T12:11:50.639Z,53.43
2018-06-21T12:12:50.373Z,55.85
2018-06-21T12:13:50.373Z,54.33
2018-06-21T12:14:50.382Z,52.71
2018-06-21T12:15:50.637Z,52.03
2018-06-21T12:16:50.644Z,52.49
2018-06-21T12:17:50.638Z,54.85
2018-06-21T12:18:50.636Z,54.53
2018-06-21T12:19:50.384Z,57.41
2018-06-21T12:20:50.452Z,55.09
2018-06-21T12:21:50.639Z,54.13
2018-06-21T12:22:50.653Z,56
2018-06-21T12:23:50.383Z,58.58
2018-06-21T12:24:50.376Z,58.12
2018-06-21T12:25:50.644Z,59.31
2018-06-21T12:26:50.641Z,59.25
2018-06-21T12:27:50.384Z,55.02
2018-06-21T12:28:50.643Z,53.21
2018-06-21T12:29:50.380Z,54.25
2018-06-21T12:30:50.376Z,56.79
2018-06-21T12:31:50.649Z,54.59
2018-06-21T12:32:50.643Z,51.62
2018-06-21T12:33:50.648Z,51.32
2018-06-21T12:34:50.382Z,51.42
2018-06-21T12:35:50.387Z,48.97
2018-06-21T12:36:50.389Z,48.39
2018-06-21T12:37:50.390Z,50.38
2018-06-21T12:38:50.392Z,50.12
2018-06-21T12:39:50.402Z,51.08
2018-06-21T12:40:50.692Z,47.91
2018-06-21T12:41:50.663Z,49.15
2018-06-21T12:42:50.664Z,47.72
2018-06-21T12:43:50.664Z,48.37
2018-06-21T12:44:50.671Z,49.44
2018-06-21T12:45:50.680Z,51.18
2018-06-21T12:46:50.409Z,49.63
2018-06-21T12:47:50.411Z,51.66
2018-06-21T12:48:50.412Z,51.08
2018-06-21T12:49:50.687Z,51.28
2018-06-21T12:50:50.417Z,51.28
2018-06-21T12:51:50.684Z,49.1
2018-06-21T12:52:50.423Z,50.45
2018-06-21T12:53:50.702Z,49.1
2018-06-21T12:54:50.695Z,49.97
2018-06-21T12:55:50.432Z,48.83